createdAt,value
2017-04-25T00:00:53.019Z,21
2017-04-25T00:02:01.106Z,20
2017-04-25T00:03:07.463Z,21
2017-04-25T00:04:15.548Z,21
2017-04-25T00:05:23.638Z,21
2017-04-25T00:06:40.339Z,21
2017-04-25T00:07:39.813Z,20
2017-04-25T00:08:47.897Z,21
2017-04-25T00:09:55.986Z,21
2017-04-25T00:11:04.073Z,21
2017-04-25T00:12:12.162Z,21
2017-04-25T00:13:20.247Z,21
2017-04-25T00:14:28.332Z,21
2017-04-25T00:15:36.435Z,21
2017-04-25T00:16:44.506Z,20
2017-04-25T00:17:52.597Z,21
2017-04-25T00:19:00.683Z,21
2017-04-25T00:20:08.767Z,20
2017-04-25T00:21:16.854Z,21
2017-04-25T00:22:24.942Z,21
2017-04-25T00:23:33.050Z,21
2017-04-25T00:24:41.113Z,21
2017-04-25T00:25:49.203Z,21
2017-04-25T00:26:57.289Z,21
2017-04-25T00:28:05.380Z,20
2017-04-25T00:29:13.522Z,21
2017-04-25T00:30:21.556Z,21
2017-04-25T00:31:29.640Z,21
2017-04-25T00:32:37.782Z,21
2017-04-25T00:33:45.816Z,21
2017-04-25T00:34:53.903Z,21
2017-04-25T00:36:01.985Z,21
2017-04-25T00:37:10.076Z,21
2017-04-25T00:38:18.167Z,21
2017-04-25T00:39:26.254Z,20
2017-04-25T00:40:34.343Z,21
2017-04-25T00:41:42.434Z,21
2017-04-25T00:42:50.519Z,21
2017-04-25T00:43:58.601Z,21
2017-04-25T00:45:06.716Z,21
2017-04-25T00:46:14.783Z,21
2017-04-25T00:47:22.877Z,21
2017-04-25T00:48:30.986Z,21
2017-04-25T00:49:39.124Z,21
2017-04-25T00:50:47.136Z,21
2017-04-25T00:51:55.221Z,21
2017-04-25T00:53:03.315Z,21
2017-04-25T00:54:11.404Z,21
2017-04-25T00:55:19.481Z,20
2017-04-25T00:56:27.571Z,21
2017-04-25T00:57:35.665Z,21
2017-04-25T00:58:43.750Z,21
2017-04-25T00:59:51.831Z,21
2017-04-25T01:00:59.922Z,21
2017-04-25T01:02:08.010Z,21
2017-04-25T01:03:16.111Z,21
2017-04-25T01:04:24.189Z,21
2017-04-25T01:05:32.276Z,21
2017-04-25T01:06:40.369Z,21
2017-04-25T01:07:48.454Z,21
2017-04-25T01:08:56.543Z,21
2017-04-25T01:10:04.631Z,21
2017-04-25T01:11:12.718Z,21
2017-04-25T01:12:20.805Z,21
2017-04-25T01:13:28.892Z,21
2017-04-25T01:14:36.973Z,21
2017-04-25T01:15:45.059Z,21
2017-04-25T01:16:53.151Z,21
2017-04-25T01:18:01.240Z,21
2017-04-25T01:19:09.324Z,21
2017-04-25T01:20:17.412Z,21
2017-04-25T01:21:25.504Z,21
2017-04-25T01:22:33.589Z,21
2017-04-25T01:23:41.672Z,21
2017-04-25T01:24:49.762Z,21
2017-04-25T01:25:57.851Z,21
2017-04-25T01:27:05.935Z,21
2017-04-25T01:28:14.025Z,21
2017-04-25T01:29:22.111Z,21
2017-04-25T01:30:30.195Z,21
2017-04-25T01:31:38.283Z,21
2017-04-25T01:32:46.374Z,21
2017-04-25T01:33:54.460Z,21
2017-04-25T01:35:02.547Z,21
2017-04-25T01:36:10.635Z,21
2017-04-25T01:37:18.722Z,20
2017-04-25T01:38:26.803Z,20
2017-04-25T01:39:34.889Z,21
2017-04-25T01:40:42.980Z,21
2017-04-25T01:41:51.070Z,21
2017-04-25T01:42:59.151Z,20
2017-04-25T01:44:07.243Z,21
2017-04-25T01:45:15.330Z,20
2017-04-25T01:46:23.415Z,21
2017-04-25T01:47:31.500Z,20
2017-04-25T01:48:39.589Z,21
2017-04-25T01:49:47.684Z,20
2017-04-25T01:50:55.766Z,21
2017-04-25T01:52:03.859Z,21
2017-04-25T01:53:11.949Z,20
2017-04-25T01:54:20.037Z,20
2017-04-25T01:55:28.125Z,20
2017-04-25T01:56:36.219Z,21
2017-04-25T01:57:44.310Z,21
2017-04-25T01:58:52.388Z,21
2017-04-25T02:00:00.478Z,21
2017-04-25T02:01:08.565Z,21
2017-04-25T02:02:16.647Z,21
2017-04-25T02:03:24.738Z,21
2017-04-25T02:04:32.824Z,21
2017-04-25T02:05:40.909Z,21
2017-04-25T02:06:49.020Z,21
2017-04-25T02:07:57.084Z,21
2017-04-25T02:09:05.172Z,21
2017-04-25T02:10:13.255Z,21
2017-04-25T02:11:21.342Z,21
2017-04-25T02:12:29.430Z,21
2017-04-25T02:13:37.517Z,21
2017-04-25T02:14:45.601Z,21
2017-04-25T02:15:53.693Z,21
2017-04-25T02:17:01.777Z,21
2017-04-25T02:18:09.862Z,21
2017-04-25T02:19:17.959Z,21
2017-04-25T02:20:26.050Z,21
2017-04-25T02:21:34.129Z,21
2017-04-25T02:22:42.212Z,21
2017-04-25T02:23:50.303Z,21
2017-04-25T02:24:58.390Z,21
2017-04-25T02:26:06.475Z,21
2017-04-25T02:27:14.570Z,21
2017-04-25T02:28:22.659Z,21
2017-04-25T02:29:30.747Z,21
2017-04-25T02:30:38.834Z,21
2017-04-25T02:31:46.973Z,21
2017-04-25T02:32:55.011Z,21
2017-04-25T02:34:03.098Z,21
2017-04-25T02:35:11.185Z,21
2017-04-25T02:36:19.271Z,21
2017-04-25T02:37:27.358Z,21
2017-04-25T02:38:35.440Z,21
2017-04-25T02:39:43.529Z,21
2017-04-25T02:40:51.610Z,21
2017-04-25T02:41:59.701Z,21
2017-04-25T02:43:07.784Z,21
2017-04-25T02:44:15.873Z,21
2017-04-25T02:45:23.961Z,21
2017-04-25T02:46:32.048Z,21
2017-04-25T02:47:40.146Z,21
2017-04-25T02:48:48.230Z,21
2017-04-25T02:49:56.304Z,21
2017-04-25T02:51:04.397Z,21
2017-04-25T02:52:12.480Z,21
2017-04-25T02:53:20.565Z,21
2017-04-25T02:54:28.649Z,21
2017-04-25T02:55:36.737Z,21
2017-04-25T02:56:44.831Z,21
2017-04-25T02:57:52.907Z,21
2017-04-25T02:59:00.997Z,21
2017-04-25T03:00:09.083Z,21
2017-04-25T03:01:17.242Z,21
2017-04-25T03:02:25.252Z,22
2017-04-25T03:03:33.343Z,21
2017-04-25T03:04:41.424Z,21
2017-04-25T03:05:49.509Z,21
2017-04-25T03:06:57.601Z,21
2017-04-25T03:08:05.686Z,21
2017-04-25T03:09:13.772Z,21
2017-04-25T03:10:21.854Z,21
2017-04-25T03:11:29.943Z,21
2017-04-25T03:12:38.031Z,21
2017-04-25T03:13:46.118Z,21
2017-04-25T03:14:54.202Z,21
2017-04-25T03:16:02.298Z,22
2017-04-25T03:17:10.373Z,22
2017-04-25T03:18:18.544Z,21
2017-04-25T03:19:26.549Z,21
2017-04-25T03:20:34.639Z,21
2017-04-25T03:21:42.720Z,22
2017-04-25T03:22:50.810Z,21
2017-04-25T03:23:58.899Z,22
2017-04-25T03:25:07.100Z,22
2017-04-25T03:26:15.072Z,22
2017-04-25T03:27:23.155Z,22
2017-04-25T03:28:31.241Z,22
2017-04-25T03:29:39.326Z,22
2017-04-25T03:30:47.416Z,22
2017-04-25T03:31:55.500Z,22
2017-04-25T03:33:03.588Z,22
2017-04-25T03:34:11.682Z,22
2017-04-25T03:35:19.765Z,21
2017-04-25T03:36:27.861Z,22
2017-04-25T03:37:35.966Z,21
2017-04-25T03:38:44.042Z,21
2017-04-25T03:39:52.119Z,21
2017-04-25T03:41:00.206Z,21
2017-04-25T03:42:08.296Z,21
2017-04-25T03:43:16.382Z,21
2017-04-25T03:44:24.470Z,21
2017-04-25T03:45:32.547Z,21
2017-04-25T03:46:40.641Z,21
2017-04-25T03:47:48.738Z,21
2017-04-25T03:48:56.816Z,21
2017-04-25T03:50:04.909Z,21
2017-04-25T03:51:12.995Z,21
2017-04-25T03:52:21.095Z,21
2017-04-25T03:53:29.163Z,21
2017-04-25T03:54:37.253Z,21
2017-04-25T03:55:45.341Z,21
2017-04-25T03:56:53.424Z,21
2017-04-25T03:58:01.512Z,21
2017-04-25T03:59:09.616Z,21
2017-04-25T04:00:17.690Z,21
2017-04-25T04:01:25.771Z,21
2017-04-25T04:02:33.862Z,22
2017-04-25T04:03:41.945Z,22
2017-04-25T04:04:50.027Z,22
2017-04-25T04:05:58.126Z,22
2017-04-25T04:07:06.202Z,22
2017-04-25T04:08:14.287Z,22
2017-04-25T04:09:22.369Z,22
2017-04-25T04:10:30.462Z,22
2017-04-25T04:11:38.544Z,22
2017-04-25T04:12:46.627Z,22
2017-04-25T04:13:54.718Z,22
2017-04-25T04:15:02.801Z,22
2017-04-25T04:16:10.884Z,22
2017-04-25T04:17:18.973Z,22
2017-04-25T04:18:27.059Z,22
2017-04-25T04:19:35.142Z,21
2017-04-25T04:20:43.227Z,21
2017-04-25T04:21:51.312Z,22
2017-04-25T04:22:59.400Z,22
2017-04-25T04:24:07.486Z,22
2017-04-25T04:25:15.570Z,22
2017-04-25T04:26:23.661Z,22
2017-04-25T04:27:31.746Z,22
2017-04-25T04:28:39.830Z,22
2017-04-25T04:29:47.917Z,21
2017-04-25T04:30:56.003Z,22
2017-04-25T04:32:04.083Z,22
2017-04-25T04:33:12.172Z,22
2017-04-25T04:34:20.260Z,22
2017-04-25T04:35:28.345Z,21
2017-04-25T04:36:36.468Z,22
2017-04-25T04:37:44.517Z,22
2017-04-25T04:38:52.601Z,22
2017-04-25T04:40:01.185Z,22
2017-04-25T04:41:08.767Z,22
2017-04-25T04:42:16.856Z,22
2017-04-25T04:43:24.944Z,22
2017-04-25T04:44:33.031Z,22
2017-04-25T04:45:41.116Z,22
2017-04-25T04:46:49.198Z,22
2017-04-25T04:47:57.286Z,22
2017-04-25T04:49:05.370Z,22
2017-04-25T04:50:13.455Z,22
2017-04-25T04:51:21.537Z,23
2017-04-25T04:52:29.645Z,23
2017-04-25T04:53:37.710Z,23
2017-04-25T04:54:45.796Z,23
2017-04-25T04:55:53.882Z,23
2017-04-25T04:57:01.965Z,23
2017-04-25T04:58:10.051Z,22
2017-04-25T04:59:18.144Z,22
2017-04-25T05:00:26.219Z,22
2017-04-25T05:01:34.309Z,22
2017-04-25T05:02:42.395Z,23
2017-04-25T05:03:50.472Z,23
2017-04-25T05:04:58.576Z,23
2017-04-25T05:06:06.654Z,23
2017-04-25T05:07:14.734Z,23
2017-04-25T05:08:22.824Z,22
2017-04-25T05:09:30.912Z,23
2017-04-25T05:10:39.002Z,23
2017-04-25T05:11:47.086Z,23
2017-04-25T05:12:55.170Z,23
2017-04-25T05:14:03.253Z,23
2017-04-25T05:15:11.348Z,23
2017-04-25T05:16:19.431Z,23
2017-04-25T05:17:27.513Z,23
2017-04-25T05:18:35.604Z,23
2017-04-25T05:19:43.687Z,23
2017-04-25T05:20:51.775Z,23
2017-04-25T05:21:59.861Z,23
2017-04-25T05:23:07.947Z,23
2017-04-25T05:24:16.031Z,23
2017-04-25T05:25:24.114Z,23
2017-04-25T05:26:32.196Z,23
2017-04-25T05:27:40.281Z,23
2017-04-25T05:28:48.370Z,23
2017-04-25T05:29:56.456Z,23
2017-04-25T05:31:04.538Z,23
2017-04-25T05:32:12.623Z,23
2017-04-25T05:33:20.711Z,23
2017-04-25T05:34:28.794Z,23
2017-04-25T05:35:36.876Z,23
2017-04-25T05:36:44.964Z,23
2017-04-25T05:37:53.051Z,23
2017-04-25T05:39:01.133Z,23
2017-04-25T05:40:09.224Z,23
2017-04-25T05:41:17.310Z,23
2017-04-25T05:42:25.392Z,23
2017-04-25T05:43:33.476Z,23
2017-04-25T05:44:41.566Z,23
2017-04-25T05:45:49.651Z,23
2017-04-25T05:46:57.737Z,23
2017-04-25T05:48:05.818Z,23
2017-04-25T05:49:13.915Z,23
2017-04-25T05:50:21.998Z,23
2017-04-25T05:51:30.133Z,23
2017-04-25T05:52:38.180Z,23
2017-04-25T05:53:46.269Z,23
2017-04-25T05:54:54.345Z,23
2017-04-25T05:56:02.436Z,23
2017-04-25T05:57:10.523Z,23
2017-04-25T05:58:18.606Z,23
2017-04-25T05:59:26.689Z,23
2017-04-25T06:00:34.780Z,23
2017-04-25T06:01:42.869Z,24
2017-04-25T06:02:50.951Z,24
2017-04-25T06:03:59.048Z,24
2017-04-25T06:05:07.146Z,24
2017-04-25T06:06:15.204Z,24
2017-04-25T06:07:23.289Z,24
2017-04-25T06:08:31.391Z,24
2017-04-25T06:09:39.474Z,24
2017-04-25T06:10:47.561Z,24
2017-04-25T06:11:55.645Z,24
2017-04-25T06:13:03.728Z,24
2017-04-25T06:14:11.809Z,24
2017-04-25T06:15:19.895Z,24
2017-04-25T06:16:28.151Z,24
2017-04-25T06:17:36.068Z,24
2017-04-25T06:18:44.153Z,24
2017-04-25T06:19:52.245Z,24
2017-04-25T06:21:00.821Z,24
2017-04-25T06:22:08.725Z,24
2017-04-25T06:23:16.507Z,24
2017-04-25T06:24:25.079Z,24
2017-04-25T06:25:32.671Z,24
2017-04-25T06:26:41.922Z,24
2017-04-25T06:27:49.013Z,24
2017-04-25T06:28:57.067Z,24
2017-04-25T06:30:05.013Z,24
2017-04-25T06:31:13.106Z,24
2017-04-25T06:32:21.309Z,24
2017-04-25T06:33:29.300Z,24
2017-04-25T06:34:37.368Z,24
2017-04-25T06:35:45.452Z,24
2017-04-25T06:36:53.545Z,24
2017-04-25T06:38:01.671Z,25
2017-04-25T06:39:09.707Z,24
2017-04-25T06:40:17.792Z,24
2017-04-25T06:41:26.366Z,24
2017-04-25T06:42:33.959Z,24
2017-04-25T06:43:42.052Z,24
2017-04-25T06:44:50.134Z,24
2017-04-25T06:45:58.223Z,24
2017-04-25T06:47:06.304Z,25
2017-04-25T06:48:14.397Z,25
2017-04-25T06:49:22.480Z,24
2017-04-25T06:50:30.561Z,24
2017-04-25T06:51:38.650Z,24
2017-04-25T06:52:46.730Z,24
2017-04-25T06:53:54.815Z,24
2017-04-25T06:55:02.902Z,24
2017-04-25T06:56:10.988Z,24
2017-04-25T06:57:19.077Z,24
2017-04-25T06:58:27.157Z,24
2017-04-25T06:59:35.248Z,25
2017-04-25T07:00:43.333Z,25
2017-04-25T07:01:51.412Z,25
2017-04-25T07:02:59.503Z,25
2017-04-25T07:04:07.588Z,25
2017-04-25T07:05:15.668Z,25
2017-04-25T07:06:23.756Z,25
2017-04-25T07:07:31.848Z,25
2017-04-25T07:08:39.926Z,25
2017-04-25T07:09:48.009Z,25
2017-04-25T07:10:56.096Z,25
2017-04-25T07:12:04.180Z,24
2017-04-25T07:13:12.266Z,24
2017-04-25T07:14:20.350Z,25
2017-04-25T07:15:28.439Z,25
2017-04-25T07:16:36.522Z,25
2017-04-25T07:17:44.603Z,25
2017-04-25T07:18:52.693Z,25
2017-04-25T07:20:01.014Z,25
2017-04-25T07:21:08.861Z,25
2017-04-25T07:22:16.948Z,25
2017-04-25T07:23:25.033Z,25
2017-04-25T07:24:33.117Z,25
2017-04-25T07:25:41.199Z,24
2017-04-25T07:26:49.289Z,25
2017-04-25T07:27:57.373Z,25
2017-04-25T07:29:05.455Z,25
2017-04-25T07:30:13.543Z,25
2017-04-25T07:31:21.628Z,25
2017-04-25T07:32:29.714Z,25
2017-04-25T07:33:37.795Z,25
2017-04-25T07:34:45.886Z,25
2017-04-25T07:35:53.973Z,25
2017-04-25T07:37:02.054Z,25
2017-04-25T07:38:10.192Z,25
2017-04-25T07:39:18.230Z,25
2017-04-25T07:40:26.309Z,25
2017-04-25T07:41:34.393Z,25
2017-04-25T07:42:42.481Z,25
2017-04-25T07:43:50.565Z,25
2017-04-25T07:44:58.649Z,25
2017-04-25T07:46:06.738Z,25
2017-04-25T07:47:14.821Z,25
2017-04-25T07:48:22.906Z,25
2017-04-25T07:49:31.028Z,25
2017-04-25T07:50:39.076Z,25
2017-04-25T07:51:47.161Z,25
2017-04-25T07:52:55.245Z,25
2017-04-25T07:54:03.340Z,25
2017-04-25T07:55:11.415Z,25
2017-04-25T07:56:19.499Z,25
2017-04-25T07:57:27.582Z,25
2017-04-25T07:58:35.671Z,25
2017-04-25T07:59:43.754Z,25
2017-04-25T08:00:51.837Z,25
2017-04-25T08:01:59.927Z,25
2017-04-25T08:03:08.014Z,25
2017-04-25T08:04:16.098Z,25
2017-04-25T08:05:24.183Z,25
2017-04-25T08:06:32.271Z,25
2017-04-25T08:07:40.357Z,25
2017-04-25T08:08:48.437Z,25
2017-04-25T08:09:56.522Z,26
2017-04-25T08:11:04.612Z,25
2017-04-25T08:12:12.692Z,25
2017-04-25T08:13:20.777Z,25
2017-04-25T08:14:28.872Z,25
2017-04-25T08:15:36.952Z,25
2017-04-25T08:16:45.030Z,25
2017-04-25T08:17:53.119Z,25
2017-04-25T08:19:01.207Z,25
2017-04-25T08:20:09.335Z,25
2017-04-25T08:21:17.371Z,25
2017-04-25T08:22:25.458Z,25
2017-04-25T08:23:33.543Z,25
2017-04-25T08:24:41.627Z,25
2017-04-25T08:25:49.713Z,25
2017-04-25T08:26:57.802Z,25
2017-04-25T08:28:05.883Z,25
2017-04-25T08:29:14.027Z,26
2017-04-25T08:30:22.056Z,25
2017-04-25T08:31:30.142Z,25
2017-04-25T08:32:38.222Z,25
2017-04-25T08:33:46.313Z,25
2017-04-25T08:34:54.416Z,25
2017-04-25T08:36:02.487Z,25
2017-04-25T08:37:10.573Z,25
2017-04-25T08:38:18.658Z,25
2017-04-25T08:39:26.740Z,25
2017-04-25T08:40:34.826Z,25
2017-04-25T08:41:42.916Z,25
2017-04-25T08:42:50.997Z,25
2017-04-25T08:43:59.079Z,25
2017-04-25T08:45:07.169Z,25
2017-04-25T08:46:15.256Z,25
2017-04-25T08:47:23.341Z,25
2017-04-25T08:48:31.426Z,25
2017-04-25T08:49:39.515Z,25
2017-04-25T08:50:47.597Z,25
2017-04-25T08:51:55.677Z,25
2017-04-25T08:53:03.769Z,25
2017-04-25T08:54:11.901Z,25
2017-04-25T08:55:19.952Z,25
2017-04-25T08:56:28.018Z,25
2017-04-25T08:57:36.114Z,25
2017-04-25T08:58:44.201Z,25
2017-04-25T08:59:52.290Z,26
2017-04-25T09:01:00.372Z,26
2017-04-25T09:02:08.461Z,26
2017-04-25T09:03:16.570Z,26
2017-04-25T09:04:24.630Z,26
2017-04-25T09:05:32.717Z,26
2017-04-25T09:06:40.808Z,25
2017-04-25T09:07:49.008Z,25
2017-04-25T09:08:56.971Z,25
2017-04-25T09:10:05.059Z,25
2017-04-25T09:11:13.141Z,26
2017-04-25T09:12:21.223Z,26
2017-04-25T09:13:29.308Z,26
2017-04-25T09:14:37.392Z,26
2017-04-25T09:15:45.477Z,26
2017-04-25T09:16:53.564Z,25
2017-04-25T09:18:01.651Z,25
2017-04-25T09:19:09.736Z,25
2017-04-25T09:20:17.819Z,25
2017-04-25T09:21:25.911Z,26
2017-04-25T09:22:33.997Z,26
2017-04-25T09:23:42.102Z,26
2017-04-25T09:24:50.177Z,26
2017-04-25T09:25:58.263Z,26
2017-04-25T09:27:06.341Z,26
2017-04-25T09:28:14.449Z,26
2017-04-25T09:29:22.515Z,26
2017-04-25T09:30:30.623Z,26
2017-04-25T09:31:38.700Z,26
2017-04-25T09:32:46.786Z,26
2017-04-25T09:33:54.876Z,26
2017-04-25T09:35:02.961Z,26
2017-04-25T09:36:11.047Z,26
2017-04-25T09:37:19.135Z,26
2017-04-25T09:38:27.212Z,26
2017-04-25T09:39:35.297Z,26
2017-04-25T09:40:43.483Z,26
2017-04-25T09:41:51.469Z,26
2017-04-25T09:42:59.549Z,26
2017-04-25T09:44:07.645Z,26
2017-04-25T09:45:15.730Z,26
2017-04-25T09:46:23.816Z,26
2017-04-25T09:47:31.907Z,26
2017-04-25T09:48:39.994Z,26
2017-04-25T09:49:48.078Z,26
2017-04-25T09:50:56.162Z,26
2017-04-25T09:52:04.248Z,26
2017-04-25T09:53:12.335Z,26
2017-04-25T09:54:20.415Z,26
2017-04-25T09:55:28.499Z,26
2017-04-25T09:56:36.589Z,26
2017-04-25T09:57:44.736Z,26
2017-04-25T09:58:52.757Z,26
2017-04-25T10:00:00.843Z,26
2017-04-25T10:01:08.923Z,26
2017-04-25T10:02:17.007Z,26
2017-04-25T10:03:25.093Z,26
2017-04-25T10:04:33.196Z,26
2017-04-25T10:05:41.271Z,26
2017-04-25T10:06:49.352Z,26
2017-04-25T10:07:57.442Z,26
2017-04-25T10:09:05.525Z,26
2017-04-25T10:10:13.610Z,26
2017-04-25T10:11:21.690Z,26
2017-04-25T10:12:29.778Z,26
2017-04-25T10:13:37.865Z,26
2017-04-25T10:14:45.943Z,26
2017-04-25T10:15:54.034Z,26
2017-04-25T10:17:02.113Z,26
2017-04-25T10:18:10.202Z,26
2017-04-25T10:19:18.285Z,26
2017-04-25T10:20:26.375Z,26
2017-04-25T10:21:34.463Z,26
2017-04-25T10:22:42.544Z,26
2017-04-25T10:23:50.629Z,26
2017-04-25T10:24:58.715Z,26
2017-04-25T10:26:06.797Z,26
2017-04-25T10:27:14.881Z,26
2017-04-25T10:28:22.971Z,26
2017-04-25T10:29:31.061Z,26
2017-04-25T10:30:39.136Z,26
2017-04-25T10:31:47.228Z,26
2017-04-25T10:32:55.312Z,26
2017-04-25T10:34:03.395Z,26
2017-04-25T10:35:11.476Z,26
2017-04-25T10:36:19.563Z,26
2017-04-25T10:37:27.649Z,26
2017-04-25T10:38:35.730Z,26
2017-04-25T10:39:43.817Z,26
2017-04-25T10:40:51.910Z,26
2017-04-25T10:41:59.993Z,26
2017-04-25T10:43:08.086Z,26
2017-04-25T10:44:16.166Z,26
2017-04-25T10:45:24.245Z,26
2017-04-25T10:46:33.698Z,26
2017-04-25T10:47:40.419Z,26
2017-04-25T10:48:48.509Z,26
2017-04-25T10:49:56.588Z,26
2017-04-25T10:51:04.678Z,26
2017-04-25T10:52:12.761Z,26
2017-04-25T10:53:20.843Z,27
2017-04-25T10:54:28.934Z,26
2017-04-25T10:55:37.018Z,26
2017-04-25T10:56:45.100Z,26
2017-04-25T10:57:53.199Z,26
2017-04-25T10:59:01.274Z,26
2017-04-25T11:00:09.359Z,26
2017-04-25T11:01:17.446Z,26
2017-04-25T11:02:25.527Z,26
2017-04-25T11:03:33.616Z,26
2017-04-25T11:04:41.702Z,26
2017-04-25T11:05:49.783Z,26
2017-04-25T11:06:57.870Z,26
2017-04-25T11:08:05.955Z,26
2017-04-25T11:09:14.039Z,26
2017-04-25T11:10:22.118Z,26
2017-04-25T11:11:30.208Z,26
2017-04-25T11:12:38.294Z,26
2017-04-25T11:13:46.379Z,26
2017-04-25T11:14:54.541Z,26
2017-04-25T11:16:02.573Z,26
2017-04-25T11:17:10.631Z,26
2017-04-25T11:18:18.716Z,26
2017-04-25T11:19:26.804Z,26
2017-04-25T11:20:34.892Z,26
2017-04-25T11:21:42.973Z,26
2017-04-25T11:22:51.060Z,26
2017-04-25T11:23:59.145Z,26
2017-04-25T11:25:07.254Z,26
2017-04-25T11:26:15.313Z,26
2017-04-25T11:27:23.402Z,26
2017-04-25T11:28:31.483Z,26
2017-04-25T11:29:39.567Z,26
2017-04-25T11:30:47.654Z,26
2017-04-25T11:31:55.793Z,27
2017-04-25T11:33:03.829Z,27
2017-04-25T11:34:11.909Z,27
2017-04-25T11:35:19.997Z,26
2017-04-25T11:36:28.083Z,26
2017-04-25T11:37:36.180Z,26
2017-04-25T11:38:44.253Z,26
2017-04-25T11:39:52.340Z,26
2017-04-25T11:41:00.420Z,26
2017-04-25T11:42:08.506Z,26
2017-04-25T11:43:16.591Z,26
2017-04-25T11:44:24.675Z,26
2017-04-25T11:45:32.757Z,26
2017-04-25T11:46:40.850Z,26
2017-04-25T11:47:48.934Z,26
2017-04-25T11:48:57.024Z,26
2017-04-25T11:50:05.106Z,26
2017-04-25T11:51:13.186Z,26
2017-04-25T11:52:21.272Z,26
2017-04-25T11:53:29.355Z,26
2017-04-25T11:54:37.443Z,26
2017-04-25T11:55:45.533Z,26
2017-04-25T11:56:53.661Z,27
2017-04-25T11:58:01.702Z,27
2017-04-25T11:59:09.786Z,26
2017-04-25T12:00:17.876Z,27
2017-04-25T12:01:25.955Z,26
2017-04-25T12:02:34.040Z,26
2017-04-25T12:03:42.122Z,27
2017-04-25T12:04:50.215Z,27
2017-04-25T12:05:58.291Z,27
2017-04-25T12:07:06.377Z,26
2017-04-25T12:08:14.462Z,26
2017-04-25T12:09:22.547Z,26
2017-04-25T12:10:30.629Z,26
2017-04-25T12:11:38.719Z,26
2017-04-25T12:12:46.802Z,26
2017-04-25T12:13:54.888Z,26
2017-04-25T12:15:02.974Z,26
2017-04-25T12:16:11.061Z,26
2017-04-25T12:17:19.138Z,26
2017-04-25T12:18:27.226Z,26
2017-04-25T12:19:35.311Z,26
2017-04-25T12:20:43.394Z,26
2017-04-25T12:21:51.480Z,27
2017-04-25T12:22:59.567Z,27
2017-04-25T12:24:07.654Z,27
2017-04-25T12:25:15.733Z,27
2017-04-25T12:26:23.820Z,27
2017-04-25T12:27:31.902Z,26
2017-04-25T12:28:39.986Z,26
2017-04-25T12:29:48.073Z,26
2017-04-25T12:30:56.157Z,27
2017-04-25T12:32:04.242Z,27
2017-04-25T12:33:12.334Z,27
2017-04-25T12:34:20.421Z,27
2017-04-25T12:35:28.501Z,27
2017-04-25T12:36:36.583Z,27
2017-04-25T12:37:44.677Z,27
2017-04-25T12:38:52.756Z,27
2017-04-25T12:40:00.837Z,27
2017-04-25T12:41:08.926Z,27
2017-04-25T12:42:17.010Z,27
2017-04-25T12:43:25.135Z,27
2017-04-25T12:44:33.178Z,27
2017-04-25T12:45:41.262Z,27
2017-04-25T12:46:49.350Z,27
2017-04-25T12:47:57.436Z,27
2017-04-25T12:49:05.518Z,27
2017-04-25T12:50:13.603Z,27
2017-04-25T12:51:21.683Z,27
2017-04-25T12:52:29.767Z,27
2017-04-25T12:53:37.855Z,27
2017-04-25T12:54:45.940Z,27
2017-04-25T12:55:54.018Z,27
2017-04-25T12:57:02.108Z,27
2017-04-25T12:58:10.194Z,27
2017-04-25T12:59:18.282Z,27
2017-04-25T13:00:26.459Z,27
2017-04-25T13:01:34.475Z,27
2017-04-25T13:02:42.538Z,27
2017-04-25T13:03:50.619Z,27
2017-04-25T13:04:58.705Z,27
2017-04-25T13:06:06.787Z,27
2017-04-25T13:07:14.876Z,28
2017-04-25T13:08:22.955Z,27
2017-04-25T13:09:31.069Z,27
2017-04-25T13:10:39.128Z,27
2017-04-25T13:11:47.208Z,27
2017-04-25T13:12:55.387Z,27
2017-04-25T13:14:03.387Z,27
2017-04-25T13:15:11.470Z,27
2017-04-25T13:16:19.551Z,27
2017-04-25T13:17:27.669Z,27
2017-04-25T13:18:35.728Z,27
2017-04-25T13:19:43.810Z,27
2017-04-25T13:20:51.898Z,27
2017-04-25T13:21:59.983Z,27
2017-04-25T13:23:08.068Z,27
2017-04-25T13:24:16.152Z,27
2017-04-25T13:25:24.237Z,27
2017-04-25T13:26:32.322Z,27
2017-04-25T13:27:40.406Z,27
2017-04-25T13:28:48.494Z,28
2017-04-25T13:29:56.607Z,28
2017-04-25T13:31:04.658Z,28
2017-04-25T13:32:12.747Z,28
2017-04-25T13:33:20.837Z,28
2017-04-25T13:34:28.919Z,28
2017-04-25T13:35:37.004Z,27
2017-04-25T13:36:45.090Z,28
2017-04-25T13:37:53.175Z,28
2017-04-25T13:39:01.256Z,28
2017-04-25T13:40:09.349Z,28
2017-04-25T13:41:17.431Z,28
2017-04-25T13:42:25.517Z,28
2017-04-25T13:43:33.599Z,28
2017-04-25T13:44:41.688Z,28
2017-04-25T13:45:49.772Z,28
2017-04-25T13:46:57.858Z,27
2017-04-25T13:48:05.941Z,28
2017-04-25T13:49:14.031Z,28
2017-04-25T13:50:22.108Z,28
2017-04-25T13:51:30.196Z,28
2017-04-25T13:52:38.283Z,28
2017-04-25T13:53:46.371Z,28
2017-04-25T13:54:54.451Z,28
2017-04-25T13:56:02.548Z,28
2017-04-25T13:57:10.627Z,28
2017-04-25T13:58:18.704Z,28
2017-04-25T13:59:26.791Z,28
2017-04-25T14:00:34.873Z,28
2017-04-25T14:01:42.958Z,27
2017-04-25T14:02:51.042Z,28
2017-04-25T14:03:59.127Z,27
2017-04-25T14:05:07.212Z,28
2017-04-25T14:06:15.294Z,28
2017-04-25T14:07:23.379Z,27
2017-04-25T14:08:31.468Z,27
2017-04-25T14:09:39.553Z,28
2017-04-25T14:10:47.638Z,27
2017-04-25T14:11:55.720Z,27
2017-04-25T14:13:03.807Z,27
2017-04-25T14:14:11.886Z,28
2017-04-25T14:15:19.968Z,28
2017-04-25T14:16:28.061Z,28
2017-04-25T14:17:36.174Z,28
2017-04-25T14:18:44.239Z,28
2017-04-25T14:19:52.325Z,28
2017-04-25T14:21:00.406Z,28
2017-04-25T14:22:08.489Z,28
2017-04-25T14:23:16.572Z,28
2017-04-25T14:24:24.659Z,28
2017-04-25T14:25:32.744Z,28
2017-04-25T14:26:40.826Z,28
2017-04-25T14:27:48.926Z,28
2017-04-25T14:28:57.003Z,28
2017-04-25T14:30:05.084Z,28
2017-04-25T14:31:13.174Z,28
2017-04-25T14:32:21.260Z,28
2017-04-25T14:33:29.337Z,28
2017-04-25T14:34:37.421Z,28
2017-04-25T14:35:45.505Z,28
2017-04-25T14:36:53.601Z,28
2017-04-25T14:38:01.675Z,28
2017-04-25T14:39:09.759Z,28
2017-04-25T14:40:17.848Z,28
2017-04-25T14:41:25.935Z,28
2017-04-25T14:42:34.147Z,28
2017-04-25T14:43:42.102Z,28
2017-04-25T14:44:50.195Z,28
2017-04-25T14:45:58.292Z,28
2017-04-25T14:47:06.347Z,28
2017-04-25T14:48:14.448Z,28
2017-04-25T14:49:22.541Z,28
2017-04-25T14:50:30.617Z,28
2017-04-25T14:51:38.705Z,28
2017-04-25T14:52:46.789Z,28
2017-04-25T14:53:54.871Z,28
2017-04-25T14:55:02.960Z,28
2017-04-25T14:56:11.045Z,28
2017-04-25T14:57:19.127Z,28
2017-04-25T14:58:27.209Z,28
2017-04-25T14:59:35.297Z,28
2017-04-25T15:00:43.381Z,28
2017-04-25T15:01:51.465Z,28
2017-04-25T15:02:59.551Z,28
2017-04-25T15:04:07.634Z,28
2017-04-25T15:05:15.839Z,28
2017-04-25T15:06:23.801Z,28
2017-04-25T15:07:31.888Z,28
2017-04-25T15:08:39.979Z,29
2017-04-25T15:09:48.058Z,29
2017-04-25T15:10:56.143Z,29
2017-04-25T15:12:04.234Z,29
2017-04-25T15:13:12.319Z,29
2017-04-25T15:14:20.398Z,29
2017-04-25T15:15:28.486Z,29
2017-04-25T15:16:36.577Z,29
2017-04-25T15:17:44.657Z,29
2017-04-25T15:18:52.748Z,29
2017-04-25T15:20:00.864Z,29
2017-04-25T15:21:08.917Z,29
2017-04-25T15:22:17.007Z,29
2017-04-25T15:23:25.083Z,29
2017-04-25T15:24:33.174Z,29
2017-04-25T15:25:41.254Z,29
2017-04-25T15:26:49.346Z,29
2017-04-25T15:27:57.427Z,29
2017-04-25T15:29:05.515Z,29
2017-04-25T15:30:13.598Z,29
2017-04-25T15:31:21.711Z,29
2017-04-25T15:32:29.772Z,29
2017-04-25T15:33:37.863Z,29
2017-04-25T15:34:45.944Z,29
2017-04-25T15:35:54.030Z,29
2017-04-25T15:37:02.110Z,29
2017-04-25T15:38:10.196Z,29
2017-04-25T15:39:18.284Z,29
2017-04-25T15:40:26.364Z,29
2017-04-25T15:41:34.449Z,29
2017-04-25T15:42:42.538Z,29
2017-04-25T15:43:50.622Z,28
2017-04-25T15:44:58.708Z,29
2017-04-25T15:46:06.788Z,28
2017-04-25T15:47:14.877Z,29
2017-04-25T15:48:22.966Z,28
2017-04-25T15:49:31.046Z,28
2017-04-25T15:50:39.142Z,28
2017-04-25T15:51:47.224Z,28
2017-04-25T15:52:55.307Z,28
2017-04-25T15:54:03.397Z,28
2017-04-25T15:55:11.479Z,28
2017-04-25T15:56:19.563Z,28
2017-04-25T15:57:27.643Z,28
2017-04-25T15:58:35.733Z,28
2017-04-25T15:59:43.821Z,28
2017-04-25T16:00:51.901Z,28
2017-04-25T16:01:59.993Z,28
2017-04-25T16:03:08.124Z,28
2017-04-25T16:04:16.162Z,28
2017-04-25T16:05:24.249Z,28
2017-04-25T16:06:32.337Z,28
2017-04-25T16:07:40.423Z,28
2017-04-25T16:08:48.506Z,28
2017-04-25T16:09:56.594Z,28
2017-04-25T16:11:04.681Z,28